x

8452944 - Conimicut Light, Ri (cptr1) Weather Station

4:24 - Sun 4th Dec 2016 All times are EST. -5 hours from GMT.

  • Wind
    14mph
  • Sea Temp 46°f
  • Aire Temp 41°f
  • Sea Pressure 1021.2mb
  • 8452944 - Conimicut Light, Ri
  • 8452944 - Conimicut Light, Ri

More Historic Weather Station data

Upgrade to MSW Pro to gain access to the past 30 days of data for over 8000 Wavebouys and Weather Stations around the globe.

Join Pro

Comparision Forecast

View Surf forecast
   
dom 12/04 4:24 14
mph
1021.2mb 46f 41f
4:18 11 15 mph 1021.3mb 46f 41f
4:06 9 13 mph 1021.3mb 46f 41f
4:00 11 14 mph 1021.3mb 46f 41f
3:54 10 15 mph 1021.3mb 46f 42f
3:48 8 10 mph 1021.5mb 46f 41f
3:42 9 14 mph 1021.6mb 46f 43f
3:36 13 15 mph 1021.5mb 46f 42f
3:30 10 14 mph 1021.4mb 46f 41f
3:24 8 13 mph 1021.3mb 46f 42f
3:18 10 14 mph 1021.3mb 46f 41f
3:12 8 11 mph 1021.3mb 46f 42f
3:06 9 11 mph 1021.3mb 46f 44f
3:00 8 13 mph 1021.4mb 46f 44f
2:54 11 13 mph 1021.4mb 46f 43f
2:48 10 13 mph 1021.5mb 46f 42f
2:42 15 17 mph 1021.5mb 46f 42f
2:36 10 13 mph 1021.5mb 46f 41f
2:30 10 13 mph 1021.4mb 46f 43f
2:24 13 16 mph 1021.2mb 46f 43f
2:18 14 15 mph 1021.2mb 46f 42f
2:12 9 11 mph 1021.2mb 46f 42f
2:06 10 14 mph 1021.1mb 46f 41f
2:00 13 15 mph 1021mb 46f 42f
1:54 8 10 mph 1021.1mb 46f 42f
1:48 9 11 mph 1021.2mb 46f 40f
1:42 8 16 mph 1021.2mb 46f 40f
1:36 13 15 mph 1021.1mb 46f 41f
1:30 10 15 mph 1021.1mb 46f 40f
1:24 10 13 mph 1021.2mb 46f 42f
1:18 10 14 mph 1021.2mb 46f 39f
1:12 14 16 mph 1021.2mb 46f 40f
1:06 10 15 mph 1021.2mb 46f 40f
1:00 11 16 mph 1021.1mb 46f 41f
12:54 14 16 mph 1021.1mb 46f 41f
12:48 11 17 mph 1021.2mb 46f 40f
12:42 11 14 mph 1021.3mb 46f 38f
12:36 11 16 mph 1021.2mb 46f 38f
12:30 10 15 mph 1021.2mb 46f 39f
12:24 15 17 mph 1021.1mb 46f 39f
12:18 11 16 mph 1021.3mb 46f 39f
12:12 14 15 mph 1021.3mb 46f 40f
12:06 8 14 mph 1021.4mb 46f 39f
12:00 10 16 mph 1021.4mb 46f 38f
11:54 14 17 mph 1021.4mb 46f 38f
11:48 13 16 mph 1021.5mb 46f 38f
11:42 14 21 mph 1021.5mb 46f 38f
11:36 14 18 mph 1021.5mb 46f 38f
11:30 14 16 mph 1021.6mb 46f 37f
11:24 14 16 mph 1021.7mb 46f 37f
11:18 9 16 mph 1021.8mb 46f 38f
11:12 14 16 mph 1021.6mb 46f 38f
11:06 14 15 mph 1021.8mb 46f 37f
11:00 15 17 mph 1021.7mb 46f 37f
10:54 11 17 mph 1021.7mb 46f 37f
10:48 11 16 mph 1021.6mb 46f 37f
10:42 14 17 mph 1021.7mb 46f 37f
10:36 13 15 mph 1021.6mb 46f 37f
10:30 14 18 mph 1021.7mb 46f 37f
10:24 15 20 mph 1021.7mb 46f 37f
10:18 16 21 mph 1021.7mb 46f 37f
10:12 14 17 mph 1021.8mb 46f 36f
10:06 15 18 mph 1021.9mb 46f 37f
10:00 16 18 mph 1022mb 46f 36f
9:54 16 21 mph 1021.9mb 46f 36f
9:48 14 17 mph 1022.1mb 46f 36f
9:42 14 17 mph 1022mb 46f 36f
9:36 13 16 mph 1022.1mb 46f 36f
9:30 15 20 mph 1022mb 46f 36f
9:24 16 18 mph 1021.9mb 46f 36f
9:18 14 18 mph 1021.9mb 46f 36f
9:12 13 17 mph 1021.7mb 46f 36f
9:06 13 17 mph 1021.7mb 46f 36f
9:00 14 20 mph 1021.6mb 46f 36f
8:54 15 18 mph 1021.6mb 46f 36f
8:48 17 21 mph 1021.5mb 46f 35f
8:42 14 16 mph 1021.5mb 46f 35f
8:36 14 17 mph 1021.6mb 46f 36f
8:30 13 15 mph 1021.6mb 46f 35f
8:24 14 15 mph 1021.6mb 46f 35f
8:18 14 17 mph 1021.5mb 46f 35f
8:12 10 14 mph 1021.5mb 46f 35f
8:06 11 16 mph 1021.5mb 46f 35f
8:00 13 17 mph 1021.4mb 46f 35f
7:54 14 17 mph 1021.2mb 46f 35f
7:48 13 17 mph 1021.3mb 46f 35f
7:42 11 16 mph 1021.4mb 46f 35f
7:36 14 16 mph 1021.3mb 46f 35f
7:30 14 17 mph 1021.2mb - -
7:24 13 16 mph 1021.1mb 46f 35f
7:18 13 17 mph 1021mb 46f 35f
7:12 14 15 mph 1020.9mb 46f 35f
7:06 15 17 mph 1020.8mb 46f 34f
7:00 14 18 mph 1020.8mb 46f 35f
6:54 15 18 mph 1020.8mb 45f 35f
6:48 15 17 mph 1020.8mb 45f 35f
6:42 16 18 mph 1020.7mb 45f 35f
6:36 18 21 mph 1020.7mb 45f 35f
6:30 20 24 mph 1020.7mb 45f 35f
6:24 18 22 mph 1020.6mb 45f 35f
6:18 18 22 mph 1020.5mb 45f 35f
6:12 20 23 mph 1020.4mb 45f 35f
6:06 20 22 mph 1020.5mb 45f 35f
6:00 21 24 mph 1020.5mb 45f 35f
5:54 17 21 mph 1020.6mb 45f 35f
5:48 17 20 mph 1020.6mb 46f 35f
5:42 17 22 mph 1020.5mb 46f 35f
5:36 18 23 mph 1020.6mb 46f 35f
5:30 18 22 mph 1020.5mb 46f 35f
5:24 17 21 mph 1020.4mb 46f 35f
5:18 16 20 mph 1020.3mb 46f 35f
5:12 17 21 mph 1020.3mb 46f 35f
5:06 16 20 mph 1020.3mb 46f 35f
5:00 15 20 mph 1020.3mb 47f 35f
4:54 14 20 mph 1020.3mb 47f 35f
4:48 15 18 mph 1020.4mb 47f 35f
4:42 16 21 mph 1020.3mb 47f 35f
4:36 16 20 mph 1020.3mb 47f 35f
4:30 16 18 mph 1020.3mb 46f 35f
4:24 16 18 mph 1020.3mb 46f 35f
4:18 15 18 mph 1020.4mb 46f 35f
4:12 15 17 mph 1020.5mb 46f 35f
4:06 15 18 mph 1020.5mb 46f 35f
4:00 15 18 mph 1020.6mb 46f 35f
3:54 16 18 mph 1020.5mb 46f 35f
3:48 14 16 mph 1020.5mb 47f 35f
3:42 14 17 mph 1020.6mb 47f 35f
3:36 14 18 mph 1020.5mb 47f 35f
3:30 16 18 mph 1020.5mb 47f 35f
3:24 14 20 mph 1020.4mb 47f 35f
3:18 16 18 mph 1020.3mb 47f 35f
3:12 14 18 mph 1020.4mb 47f 35f
3:06 16 20 mph 1020.3mb 47f 35f
3:00 14 17 mph 1020.3mb 47f 35f
2:54 15 20 mph 1020.2mb 47f 35f
2:48 16 18 mph 1020.2mb 47f 35f
2:42 14 17 mph 1020.2mb 47f 35f
2:36 14 18 mph 1020.1mb 47f 35f
2:30 15 18 mph 1020.1mb 47f 35f
2:24 15 17 mph 1020.1mb 47f 35f
2:18 15 17 mph 1020.1mb 47f 35f
2:12 16 20 mph 1020mb 47f 35f
2:06 17 20 mph 1019.8mb 47f 35f
2:00 17 20 mph 1019.8mb 47f 36f
1:54 16 20 mph 1019.7mb 47f 36f
1:48 18 23 mph 1019.7mb 47f 36f
1:42 18 23 mph 1019.7mb 47f 36f
1:36 16 22 mph 1019.7mb 47f 36f
1:30 20 23 mph 1019.6mb 47f 36f
1:24 18 24 mph 1019.4mb 47f 36f
1:18 17 23 mph 1019.3mb 47f 36f
1:12 17 21 mph 1019.1mb 47f 36f
1:06 17 21 mph 1019.1mb 47f 36f
1:00 16 20 mph 1019mb 47f 36f
12:54 15 17 mph 1019mb 47f 36f
12:48 15 18 mph 1018.9mb 47f 36f
12:42 13 15 mph 1018.9mb 47f 36f
12:36 14 16 mph 1019mb 47f 36f
12:30 9 13 mph 1018.9mb 47f 36f
12:24 11 15 mph 1018.8mb 47f 36f
12:18 13 16 mph 1018.7mb 47f 36f
12:12 14 16 mph 1018.5mb 47f 36f
12:06 14 16 mph 1018.6mb 47f 37f
12:00 14 16 mph 1018.5mb 47f 37f
sáb 12/03 11:54 14 17 mph 1018.4mb 47f 37f
11:48 15 17 mph 1018.3mb 47f 37f
11:42 14 16 mph 1018.1mb 47f 37f
11:36 13 16 mph 1018.2mb 47f 37f
11:30 13 15 mph 1018mb 47f 37f
11:24 14 15 mph 1018mb 47f 37f
11:18 14 17 mph 1017.9mb 47f 37f
11:12 14 22 mph 1017.9mb 47f 37f
11:06 16 21 mph 1017.5mb 47f 37f
11:00 11 14 mph 1017.6mb 47f 38f
10:54 10 14 mph 1017.7mb 47f 37f
10:48 11 15 mph 1017.6mb 47f 38f
10:42 14 17 mph 1017.4mb 47f 38f
10:36 13 16 mph 1017.3mb 47f 38f
10:30 13 16 mph 1017.3mb 47f 38f
10:24 14 20 mph 1017.2mb 47f 38f
10:18 14 20 mph 1017.1mb 47f 38f
10:12 16 21 mph 1017mb 47f 38f
10:06 17 23 mph 1016.8mb 47f 38f
10:00 17 22 mph 1016.8mb 47f 39f
9:54 20 24 mph 1016.8mb 47f 39f
9:48 20 23 mph 1016.8mb 47f 39f
9:42 22 24 mph 1016.9mb 47f 39f
9:36 22 28 mph 1016.9mb 47f 39f
9:30 20 22 mph 1017mb 47f 39f
9:24 17 22 mph 1017.1mb 47f 39f
9:18 17 22 mph 1017.1mb 47f 39f
9:12 18 22 mph 1017.1mb 47f 39f
9:06 18 25 mph 1017mb 47f 39f
9:00 20 22 mph 1016.9mb 47f 40f
8:54 20 23 mph 1017mb 47f 40f
8:48 21 24 mph 1017.1mb 47f 40f
8:42 23 26 mph 1017mb 47f 40f
8:36 22 28 mph 1017mb 47f 40f
8:30 22 26 mph 1016.9mb 47f 40f
8:24 20 25 mph 1016.9mb 47f 40f
8:18 21 28 mph 1016.9mb 47f 40f
8:12 23 29 mph 1016.9mb 47f 40f
8:06 18 22 mph 1016.9mb 47f 41f
8:00 17 24 mph 1017mb 47f 41f
7:54 21 26 mph 1016.9mb 47f 41f
7:48 25 31 mph 1016.7mb 47f 41f
7:42 29 33 mph 1016.7mb 47f 41f
7:36 29 36 mph 1016.5mb 47f 42f
7:30 32 37 mph 1016.4mb 47f 42f
7:24 25 33 mph 1016.4mb 47f 42f
7:18 29 33 mph 1016.3mb 47f 42f
7:12 24 26 mph 1016.2mb 47f 42f
7:06 25 30 mph 1016.2mb 47f 42f
7:00 26 36 mph 1016mb 47f 42f
6:54 28 34 mph 1015.9mb 47f 42f
6:48 26 32 mph 1016mb 47f 42f
6:42 23 29 mph 1016mb 47f 42f
6:36 21 28 mph 1016.1mb 47f 42f
6:30 22 26 mph 1016.1mb 47f 42f
6:24 21 26 mph 1016.2mb 47f 42f
6:18 17 20 mph 1016.2mb 47f 42f
6:12 14 18 mph 1016mb 47f 42f
6:06 17 21 mph 1015.9mb 47f 42f
6:00 16 21 mph 1015.9mb 47f 42f
5:54 15 21 mph 1015.7mb 47f 42f
5:48 16 21 mph 1015.6mb 47f 42f
5:42 16 24 mph 1015.5mb 47f 42f
5:36 17 20 mph 1015.3mb 47f 42f
5:30 16 20 mph 1015.2mb 47f 42f
5:24 17 21 mph 1015.1mb 47f 42f
5:18 18 22 mph 1014.9mb 47f 42f
5:12 17 21 mph 1014.8mb 47f 42f
5:06 17 22 mph 1014.7mb 47f 42f
5:00 14 16 mph 1014.7mb 47f 42f
4:54 16 20 mph 1014.5mb 47f 42f
4:48 20 23 mph 1014.3mb 47f 42f
4:42 15 22 mph 1014.2mb 47f 42f
4:36 21 24 mph 1014.1mb 47f 43f
4:30 20 24 mph 1014mb 47f 43f
4:24 18 28 mph 1013.9mb 47f 43f
4:18 22 28 mph 1013.8mb 47f 43f
4:12 22 26 mph 1013.6mb 47f 43f
4:06 24 30 mph 1013.4mb 47f 43f
4:00 17 22 mph 1013.5mb 47f 43f
3:54 20 24 mph 1013.4mb 47f 43f
3:48 21 24 mph 1013.2mb 47f 43f
3:42 20 25 mph 1013.1mb 47f 43f
3:36 18 26 mph 1013mb 47f 43f
3:30 22 28 mph 1012.9mb 47f 43f
3:24 23 30 mph 1012.9mb 47f 43f
3:18 29 32 mph 1012.7mb 47f 43f
3:12 24 34 mph 1012.8mb 47f 43f
3:06 25 33 mph 1012.7mb 47f 43f
3:00 25 31 mph 1012.7mb 47f 43f
2:54 24 29 mph 1012.6mb 47f 43f
2:48 23 30 mph 1012.6mb 47f 44f
2:42 28 30 mph 1012.5mb 47f 43f
2:36 26 36 mph 1012.4mb 47f 43f
2:30 26 31 mph 1012.3mb 47f 43f
2:24 28 34 mph 1012.2mb 47f 44f
2:18 26 30 mph 1012.2mb 47f 43f
2:12 28 31 mph 1012.1mb 47f 44f
2:06 30 36 mph 1012mb 47f 44f
2:00 30 38 mph 1012mb 47f 43f
1:54 31 37 mph 1011.9mb 47f 44f
1:48 33 37 mph 1011.8mb 47f 44f
1:42 30 34 mph 1011.8mb 47f 44f
1:36 29 36 mph 1011.8mb 47f 44f
1:30 30 33 mph 1011.7mb 47f 44f
1:24 29 34 mph 1011.8mb 47f 44f
1:18 21 30 mph 1011.8mb 47f 45f
1:12 23 29 mph 1011.7mb 47f 44f
1:06 23 29 mph 1011.7mb 47f 44f
1:00 29 32 mph 1011.5mb 47f 44f
12:54 24 31 mph 1011.6mb 47f 44f
12:48 28 31 mph 1011.5mb 47f 44f
12:42 24 30 mph 1011.5mb 47f 44f
12:36 24 28 mph 1011.6mb 47f 44f
12:30 24 29 mph 1011.5mb 47f 44f
12:24 24 32 mph 1011.5mb 47f 44f
12:18 29 33 mph 1011.5mb 47f 44f
12:12 25 28 mph 1011.6mb 47f 44f
12:06 21 29 mph 1011.7mb 47f 44f
12:00 24 28 mph 1011.7mb 47f 44f
11:54 20 28 mph 1011.8mb 47f 44f
11:48 20 24 mph 1011.9mb 47f 44f
11:42 23 29 mph 1011.8mb 47f 44f
11:36 23 26 mph 1011.8mb 47f 43f
11:30 24 31 mph 1011.8mb 47f 44f
11:24 28 30 mph 1011.6mb 47f 44f
11:18 23 29 mph 1011.8mb 47f 43f
11:12 25 29 mph 1011.7mb 47f 43f
11:06 25 30 mph 1011.7mb 47f 43f
11:00 25 29 mph 1011.7mb 47f 43f
10:54 29 34 mph 1011.6mb 47f 43f
10:48 26 30 mph 1011.6mb 47f 43f
10:42 29 36 mph 1011.6mb 47f 43f
10:36 24 31 mph 1011.7mb 47f 43f
10:30 26 30 mph 1011.7mb 47f 43f
10:24 22 28 mph 1011.7mb 47f 43f
10:18 26 34 mph 1011.8mb 47f 42f
10:12 26 29 mph 1011.7mb 47f 42f
10:06 23 26 mph 1011.7mb 47f 42f
10:00 24 29 mph 1011.6mb 47f 42f
9:54 26 36 mph 1011.5mb 47f 42f
9:48 23 29 mph 1011.7mb 47f 42f
9:42 23 30 mph 1011.7mb 47f 42f
9:36 25 31 mph 1011.6mb 46f 42f
9:30 23 28 mph 1011.6mb 46f 42f
9:24 23 31 mph 1011.6mb 46f 42f
9:18 24 34 mph 1011.5mb 46f 41f
9:12 20 28 mph 1011.4mb 47f 41f
9:06 23 26 mph 1011.3mb 46f 41f
9:00 24 28 mph 1011.2mb 47f 41f
8:54 22 30 mph 1011.1mb 47f 41f
8:48 24 28 mph 1011mb 46f 41f
8:42 21 30 mph 1011.1mb 46f 41f
8:36 24 29 mph 1011mb 46f 41f
8:30 25 29 mph 1010.9mb 46f 41f
8:24 25 32 mph 1010.8mb 47f 41f
8:18 23 28 mph 1010.7mb 47f 40f
8:12 22 29 mph 1010.7mb 47f 40f
8:06 23 26 mph 1010.8mb 47f 40f
8:00 23 28 mph 1010.7mb 47f 40f
7:54 21 26 mph 1010.6mb 47f 40f
7:48 23 25 mph 1010.5mb 47f 40f
7:42 22 26 mph 1010.5mb 47f 40f
7:36 18 23 mph 1010.5mb 47f 40f
7:30 18 24 mph 1010.5mb 47f 40f
7:24 20 23 mph 1010.5mb 47f 40f
7:18 18 25 mph 1010.4mb 47f 40f
7:12 20 24 mph 1010.2mb 47f 40f
7:06 17 21 mph 1010.1mb 47f 40f
7:00 18 22 mph 1010.2mb 47f 40f
6:54 20 22 mph 1010.1mb 47f 40f
6:48 17 21 mph 1010.1mb 47f 40f
6:42 16 22 mph 1010mb 47f 40f
6:36 16 21 mph 1010.1mb 47f 40f
6:30 14 22 mph 1010mb 47f 40f
6:24 15 18 mph 1010mb 47f 40f
6:18 17 22 mph 1009.9mb 47f 40f
6:12 17 23 mph 1009.8mb 47f 40f
6:06 17 25 mph 1009.7mb 47f 40f
6:00 17 24 mph 1009.6mb 47f 40f
5:54 18 24 mph 1009.6mb 47f 40f
5:48 17 24 mph 1009.5mb 47f 40f
5:42 20 23 mph 1009.3mb 47f 40f
5:36 20 24 mph 1009.3mb 47f 40f
5:30 18 23 mph 1009.3mb 47f 40f
5:24 16 20 mph 1009.3mb 47f 40f
5:18 16 21 mph 1009.4mb 47f 40f
5:12 18 22 mph 1009.3mb 47f 40f
5:06 20 23 mph 1009.2mb 47f 40f
5:00 18 23 mph 1009.1mb 47f 40f
4:54 20 22 mph 1009.1mb 47f 40f
4:48 18 22 mph 1009mb 48f 40f
4:42 18 22 mph 1009.1mb 48f 40f
4:36 18 21 mph 1009.1mb 47f 40f
4:30 18 22 mph 1009mb 47f 40f
4:24 20 22 mph 1009mb 47f 40f
4:18 20 23 mph 1008.9mb 47f 40f
4:12 20 24 mph 1008.9mb 47f 40f
4:06 17 22 mph 1008.9mb 47f 41f
4:00 17 22 mph 1008.8mb 47f 41f
3:54 20 22 mph 1008.7mb 47f 41f
3:48 17 21 mph 1008.7mb 47f 41f
3:42 18 22 mph 1008.7mb 47f 41f
3:36 21 23 mph 1008.6mb 47f 41f
3:30 17 21 mph 1008.6mb 47f 41f
3:24 17 22 mph 1008.6mb 47f 41f
3:18 16 20 mph 1008.6mb 47f 41f
3:12 17 20 mph 1008.6mb 47f 41f
3:06 18 23 mph 1008.5mb 47f 41f
3:00 20 23 mph 1008.5mb 47f 41f
2:54 18 23 mph 1008.5mb 47f 41f
2:48 20 22 mph 1008.5mb 47f 42f
2:42 17 21 mph 1008.5mb 47f 42f
2:36 16 23 mph 1008.6mb 47f 42f
2:30 17 22 mph 1008.6mb 47f 42f
2:24 17 23 mph 1008.6mb 47f 42f
2:18 16 21 mph 1008.6mb 47f 42f
2:12 16 23 mph 1008.5mb 47f 42f
2:06 18 26 mph 1008.6mb 47f 42f
2:00 18 25 mph 1008.4mb 47f 42f
1:54 18 28 mph 1008.4mb 47f 42f
1:48 21 26 mph 1008.3mb 47f 42f
1:42 23 28 mph 1008.3mb 47f 42f
1:36 20 24 mph 1008.3mb 47f 42f
1:30 20 24 mph 1008.4mb 47f 42f
1:24 20 25 mph 1008.5mb 47f 42f
1:18 20 28 mph 1008.3mb 47f 42f
1:12 22 28 mph 1008.3mb 47f 42f
1:06 21 28 mph 1008.3mb 47f 42f
1:00 24 29 mph 1008.1mb 47f 42f
12:54 22 28 mph 1008.1mb 47f 42f
12:48 24 29 mph 1008mb 47f 42f
12:42 22 26 mph 1007.9mb 47f 42f
12:36 20 25 mph 1007.8mb 47f 42f
12:30 22 29 mph 1007.8mb 47f 42f
12:24 24 28 mph 1007.8mb 47f 42f
12:18 21 26 mph 1007.8mb 47f 42f
12:12 16 23 mph 1007.6mb 47f 41f
12:06 25 30 mph 1007.7mb 47f 42f
12:00 22 26 mph 1007.8mb 47f 42f
vie 12/02 11:54 18 23 mph 1007.7mb 48f 42f
11:48 18 24 mph 1007.7mb 48f 42f
11:42 17 22 mph 1007.9mb 48f 42f
11:36 20 24 mph 1007.8mb 48f 42f
11:30 17 23 mph 1007.9mb 48f 42f
11:24 21 25 mph 1007.9mb 48f 42f
11:18 17 21 mph 1008.2mb 48f 42f
11:12 15 17 mph 1008.2mb 48f 42f
11:06 16 21 mph 1008.3mb 48f 42f
11:00 14 17 mph 1008.3mb 48f 42f
10:54 15 18 mph 1008.3mb 48f 42f
10:48 14 18 mph 1008.3mb 48f 42f
10:42 10 17 mph 1008.3mb 48f 42f
10:36 10 14 mph 1008.3mb 48f 42f
10:30 11 15 mph 1008.3mb 48f 42f
10:24 13 14 mph 1008.3mb 48f 43f
10:18 11 14 mph 1008.3mb 48f 43f
10:12 11 16 mph 1008.2mb 48f 43f
10:06 15 18 mph 1008.1mb 48f 43f
10:00 14 16 mph 1008.1mb 48f 43f
9:54 14 17 mph 1008.1mb 48f 43f
9:48 13 16 mph 1008.1mb 48f 43f
9:42 10 16 mph 1008.1mb 48f 43f
9:36 13 15 mph 1008.2mb 48f 43f
9:30 10 14 mph 1008.2mb 48f 44f
9:24 13 20 mph 1008.2mb 48f 44f
9:18 13 17 mph 1008.2mb 48f 44f
9:12 15 18 mph 1008.2mb 48f 44f
9:06 16 18 mph 1008.3mb 48f 44f
9:00 14 17 mph 1008.3mb 48f 44f
8:54 11 16 mph 1008.2mb 48f 44f
8:48 13 16 mph 1008.2mb 48f 45f
8:42 11 14 mph 1008.2mb 48f 45f
8:36 9 14 mph 1008.2mb 48f 45f
8:30 11 14 mph 1008.2mb 48f 45f
8:24 9 13 mph 1008.1mb 48f 45f
8:18 11 14 mph 1008.2mb 48f 46f
8:12 13 16 mph 1008.2mb 48f 46f
8:06 13 15 mph 1008.3mb 48f 46f
8:00 13 15 mph 1008.3mb 48f 46f
7:54 13 15 mph 1008.3mb 48f 46f
7:48 14 16 mph 1008.4mb 48f 46f
7:42 13 15 mph 1008.4mb 48f 46f
7:36 10 15 mph 1008.4mb 48f 46f
7:30 14 17 mph 1008.5mb 48f 47f
7:24 13 16 mph 1008.5mb 48f 47f
7:18 13 18 mph 1008.6mb 48f 47f
7:12 15 23 mph 1008.6mb 48f 47f
7:06 16 18 mph 1008.6mb 48f 47f
7:00 15 22 mph 1008.6mb 48f 47f
6:54 17 23 mph 1008.6mb 48f 47f
6:48 13 18 mph 1008.6mb 48f 47f
6:30 7 9 mph 1008.6mb 48f 47f
6:24 8 10 mph 1008.6mb 48f 47f
6:18 9 10 mph 1008.6mb 48f 47f
6:12 10 13 mph 1008.6mb 48f 47f
6:06 11 17 mph 1008.5mb 48f 48f
6:00 15 17 mph 1008.5mb 48f 48f
5:54 8 10 mph 1008.4mb 48f 47f
5:48 9 11 mph 1008.4mb 48f 47f
4:54 16 20 mph 1008.6mb 48f 48f
4:48 11 15 mph 1008.5mb 48f 47f
4:18 6 8 mph 1008.2mb 48f 47f
4:12 6 8 mph 1008.1mb 48f 47f
4:06 9 11 mph 1008.1mb 48f 48f
4:00 8 13 mph 1008.1mb 48f 48f
3:54 10 15 mph 1008.1mb 48f 48f
3:48 14 18 mph 1008.1mb 48f 48f
3:42 14 18 mph 1008.1mb 48f 48f
3:36 15 21 mph 1008.1mb 48f 48f
3:30 17 23 mph 1008.1mb 48f 48f
3:24 16 21 mph 1008mb 48f 48f
3:18 18 25 mph 1007.9mb 48f 48f
3:12 18 24 mph 1008mb 48f 49f
3:06 17 24 mph 1007.8mb 48f 49f
3:00 21 25 mph 1007.8mb 48f 49f
2:54 15 21 mph 1007.9mb 48f 49f
2:48 17 24 mph 1007.8mb 48f 49f
2:42 24 28 mph 1007.8mb 48f 48f
2:36 26 30 mph 1007.7mb 48f 48f
2:30 22 30 mph 1007.8mb 48f 48f
2:24 21 26 mph 1007.8mb 48f 48f
2:18 22 28 mph 1007.7mb 48f 48f
2:12 21 24 mph 1007.7mb 48f 48f
2:06 22 26 mph 1007.7mb 48f 48f
2:00 18 24 mph 1007.7mb 48f 48f
1:54 22 28 mph 1007.6mb 48f 48f
1:48 22 29 mph 1007.7mb 48f 48f
1:42 24 32 mph 1007.7mb 48f 48f
1:36 23 31 mph 1007.8mb 48f 48f
1:30 26 37 mph 1007.9mb 48f 48f
1:24 26 31 mph 1007.8mb 48f 48f
1:18 22 31 mph 1007.8mb 48f 48f
1:12 25 31 mph 1008mb 48f 48f
1:06 22 29 mph 1007.8mb 48f 48f
1:00 23 29 mph 1008mb 48f 48f
12:54 25 30 mph 1008.1mb 48f 48f
12:48 28 32 mph 1008.2mb 48f 48f
12:42 25 32 mph 1008mb 47f 48f
12:36 24 29 mph 1008.1mb 47f 48f
12:30 21 25 mph 1008.1mb 47f 48f
12:24 22 34 mph 1008mb 47f 47f
12:18 22 25 mph 1008.3mb 47f 47f
12:12 20 25 mph 1008.3mb 47f 47f
12:06 16 24 mph 1008.3mb 47f 47f
12:00 18 24 mph 1008.1mb 47f 47f
11:54 20 26 mph 1008.4mb 47f 47f
11:48 21 28 mph 1008.6mb 47f 47f
11:42 23 26 mph 1008.7mb 47f 47f
11:36 20 24 mph 1008.7mb 47f 47f
11:30 18 29 mph 1008.7mb 47f 47f
11:24 22 26 mph 1008.6mb 47f 47f
11:18 23 30 mph 1008.6mb 47f 46f
11:12 24 31 mph 1008.7mb 47f 47f
11:06 22 26 mph 1008.7mb 47f 46f
11:00 24 29 mph 1008.8mb 47f 46f
10:54 23 26 mph 1009mb 47f 46f
10:48 25 31 mph 1009mb 47f 46f
10:42 22 30 mph 1009mb 47f 46f
10:36 23 26 mph 1009.1mb 47f 46f
10:30 18 22 mph 1009.2mb 47f 46f
10:24 16 21 mph 1009.4mb 47f 46f
10:18 14 21 mph 1009.4mb 47f 46f
10:12 16 20 mph 1009.5mb 47f 46f
10:06 14 16 mph 1009.6mb 47f 46f
10:00 11 14 mph 1009.6mb 47f 45f
9:54 13 17 mph 1009.6mb 47f 45f
9:48 13 17 mph 1009.6mb 47f 44f
9:42 14 16 mph 1009.5mb 47f 44f
9:36 13 18 mph 1009.5mb 47f 44f
9:30 13 20 mph 1009.6mb 47f 44f
9:24 16 18 mph 1009.6mb 47f 44f
9:18 17 20 mph 1009.6mb 47f 43f
9:12 14 16 mph 1009.6mb 47f 43f
9:06 10 16 mph 1009.5mb 47f 43f
9:00 10 14 mph 1009.5mb 47f 42f
8:54 13 15 mph 1009.5mb 47f 42f
8:48 10 14 mph 1009.5mb 47f 42f
8:42 10 14 mph 1009.5mb 47f 42f
8:36 9 15 mph 1009.5mb 47f 42f
8:30 14 17 mph 1009.5mb 47f 41f
8:24 15 20 mph 1009.4mb 47f 41f
8:18 13 17 mph 1009.4mb 48f 41f
8:12 14 18 mph 1009.4mb 48f 41f
8:06 16 21 mph 1009.5mb 48f 40f
8:00 14 16 mph 1009.5mb 48f 40f
7:54 11 15 mph 1009.5mb 48f 40f
7:48 9 14 mph 1009.4mb 48f 40f
7:42 10 14 mph 1009.4mb 47f 40f
7:36 11 14 mph 1009.4mb 47f 40f
7:30 10 11 mph 1009.3mb 47f 40f
7:24 10 14 mph 1009.2mb 47f 40f
7:18 8 14 mph 1009.2mb 47f 40f
7:12 7 10 mph 1009.1mb 47f 40f
7:06 8 10 mph 1009.1mb 47f 39f
7:00 7 10 mph 1009.1mb 47f 39f
6:54 7 10 mph 1009mb 47f 39f
6:48 7 10 mph 1009mb 47f 40f
6:42 8 13 mph 1008.9mb 47f 40f
6:36 9 14 mph 1008.9mb 47f 40f
6:30 9 11 mph 1008.9mb 47f 40f
6:24 10 13 mph 1008.9mb 47f 40f
6:18 10 14 mph 1008.8mb 47f 40f
6:12 11 15 mph 1008.9mb 47f 40f
6:06 11 15 mph 1008.9mb 47f 40f
6:00 13 15 mph 1008.8mb 47f 40f
5:54 13 16 mph 1008.8mb 47f 40f
5:48 11 15 mph 1008.7mb 48f 40f
5:42 14 17 mph 1008.7mb 48f 40f
5:36 14 17 mph 1008.7mb 48f 40f
5:30 15 18 mph 1008.5mb 48f 40f
5:24 14 20 mph 1008.5mb 48f 40f
5:18 13 18 mph 1008.5mb 48f 40f
5:12 15 20 mph 1008.5mb 48f 40f
5:06 16 20 mph 1008.4mb 48f 40f
5:00 15 20 mph 1008.4mb 48f 40f
4:54 15 20 mph 1008.3mb 48f 40f
4:48 17 21 mph 1008.3mb 48f 40f
4:42 16 21 mph 1008.2mb 48f 40f
4:36 15 21 mph 1008.1mb 48f 40f
4:30 15 20 mph 1008.1mb 48f 40f
4:24 17 22 mph 1008.1mb 48f 40f
4:18 16 24 mph 1008.1mb 48f 40f
4:12 16 20 mph 1008mb 48f 40f
4:06 17 22 mph 1008mb 48f 40f
4:00 15 18 mph 1007.9mb 48f 41f
3:54 14 20 mph 1007.9mb 48f 40f
3:48 15 18 mph 1008mb 48f 41f
3:42 14 17 mph 1008mb 48f 41f
3:36 11 16 mph 1008mb 48f 41f
3:30 11 16 mph 1007.9mb 48f 41f
3:24 13 21 mph 1007.8mb 48f 41f
3:18 15 18 mph 1007.7mb 48f 40f
3:12 15 17 mph 1007.8mb 48f 41f
3:06 14 17 mph 1007.8mb 48f 41f
3:00 14 17 mph 1007.8mb 48f 41f
2:54 15 17 mph 1007.7mb 48f 41f
2:48 13 18 mph 1007.8mb 48f 41f
2:42 13 17 mph 1007.7mb 48f 41f
2:36 14 16 mph 1007.7mb 48f 41f
2:30 14 17 mph 1007.8mb 48f 41f
2:24 15 18 mph 1007.7mb 48f 41f
2:18 15 18 mph 1007.7mb 48f 41f
2:12 14 17 mph 1007.6mb 48f 41f
2:06 14 17 mph 1007.5mb 48f 41f
2:00 15 17 mph 1007.4mb 48f 41f
1:54 14 17 mph 1007.3mb 48f 41f
1:48 13 15 mph 1007.2mb 48f 41f
1:42 13 14 mph 1007.2mb 48f 41f
1:36 11 15 mph 1007.1mb 48f 41f
1:30 11 14 mph 1007.2mb 48f 41f
1:24 11 15 mph 1007.2mb 48f 42f
1:18 13 14 mph 1007.1mb 48f 42f
1:12 10 13 mph 1007.1mb 48f 42f
1:06 9 11 mph 1007mb 48f 42f
1:00 10 13 mph 1006.8mb 48f 42f
12:54 11 13 mph 1006.8mb 48f 42f
12:48 11 14 mph 1006.7mb 48f 42f
12:42 13 15 mph 1006.6mb 48f 42f
12:36 14 15 mph 1006.6mb 48f 42f
12:30 11 14 mph 1006.6mb 48f 42f
12:24 10 13 mph 1006.6mb 48f 42f
12:18 10 13 mph 1006.6mb 48f 43f
12:12 9 11 mph 1006.7mb 49f 43f
12:06 9 14 mph 1006.7mb 49f 43f
12:00 10 14 mph 1006.6mb 49f 43f
jue 12/01 11:54 11 13 mph 1006.6mb 49f 43f
11:48 9 16 mph 1006.5mb 48f 43f
11:42 10 14 mph 1006.6mb 49f 43f
11:36 8 9 mph 1006.5mb 49f 43f
11:30 8 9 mph 1006.5mb 49f 43f
11:24 8 10 mph 1006.5mb 49f 44f
11:18 8 11 mph 1006.5mb 49f 44f
11:12 8 9 mph 1006.5mb 49f 44f
11:06 6 9 mph 1006.5mb 49f 44f
11:00 8 9 mph 1006.6mb 49f 44f
10:54 9 13 mph 1006.5mb 49f 44f
10:48 9 14 mph 1006.4mb 49f 44f
10:42 13 17 mph 1006.3mb 49f 44f
10:36 10 14 mph 1006.2mb 49f 45f
10:30 13 15 mph 1006.1mb 49f 45f
10:24 14 20 mph 1006mb 49f 45f
10:18 17 20 mph 1005.9mb 49f 45f
10:12 18 24 mph 1005.8mb 49f 45f
10:06 20 26 mph 1005.7mb 49f 45f
10:00 25 32 mph 1005.5mb 49f 46f
9:54 24 29 mph 1005.5mb 49f 45f
9:48 21 25 mph 1005.6mb 49f 46f
9:30 20 25 mph 1005.4mb 49f 46f
9:24 21 25 mph 1005.4mb 49f 46f
9:18 20 26 mph 1005.3mb 49f 46f
9:12 23 25 mph 1005.2mb 49f 46f
9:06 22 24 mph 1005.1mb 49f 46f
9:00 16 21 mph 1005.1mb 49f 46f
8:54 16 21 mph 1005.1mb 49f 46f
8:48 16 23 mph 1005.1mb 49f 46f
8:30 22 26 mph 1004.7mb 49f 47f
8:24 20 24 mph 1004.6mb 49f 48f
8:18 16 20 mph 1004.6mb 49f 48f
8:12 18 31 mph 1004.5mb 49f 48f
8:06 21 25 mph 1004.5mb 49f 48f
8:00 16 22 mph 1004.3mb 49f 49f
7:54 15 20 mph 1004.3mb 49f 49f
7:48 14 20 mph 1004.2mb 49f 49f
7:42 11 14 mph 1004.1mb 49f 49f
7:36 13 16 mph 1004.1mb 49f 49f
7:30 13 16 mph 1004mb 49f 49f
7:24 11 16 mph 1003.9mb 49f 49f
7:18 14 18 mph 1003.9mb 49f 49f
7:12 14 17 mph 1003.8mb 49f 49f
7:06 15 17 mph 1003.7mb 49f 49f
7:00 13 14 mph 1003.6mb 49f 49f
6:54 13 17 mph 1003.5mb 49f 49f
6:48 14 16 mph 1003.5mb 49f 49f
6:42 13 17 mph 1003.4mb 49f 49f
6:36 11 18 mph 1003.4mb 49f 49f
6:30 14 18 mph 1003.3mb 49f 50f
6:24 18 20 mph 1003.2mb 49f 50f
6:18 14 17 mph 1003.2mb 49f 50f
6:12 16 20 mph 1003.1mb 49f 50f
6:06 18 22 mph 1002.9mb 49f 50f
6:00 17 21 mph 1002.9mb 49f 50f
5:54 17 22 mph 1002.9mb 49f 50f
5:48 20 21 mph 1002.9mb 49f 50f
5:42 18 22 mph 1002.9mb 49f 50f
5:36 17 22 mph 1002.8mb 49f 50f
5:30 15 18 mph 1002.8mb 49f 50f
5:24 18 22 mph 1002.7mb 49f 50f
5:18 22 23 mph 1002.7mb 49f 51f
5:12 18 23 mph 1002.6mb 49f 50f
5:06 22 25 mph 1002.6mb 49f 51f
5:00 21 28 mph 1002.5mb 49f 51f
4:54 25 30 mph 1002.3mb 49f 51f
4:48 16 23 mph 1002.3mb 49f 51f
4:42 21 23 mph 1002.1mb 49f 51f
4:36 20 25 mph 1002mb 49f 51f
4:30 18 24 mph 1001.8mb 49f 51f
4:24 17 21 mph 1001.7mb 49f 51f
4:18 17 22 mph 1001.6mb 49f 51f
4:12 18 24 mph 1001.6mb 49f 51f
4:06 18 23 mph 1001.4mb 49f 51f
4:00 18 21 mph 1001.3mb 49f 52f
3:54 22 23 mph 1001.2mb 49f 52f
3:48 21 26 mph 1001mb 49f 52f
3:42 22 25 mph 1000.8mb 49f 52f
3:36 21 25 mph 1000.8mb 49f 53f
3:30 21 22 mph 1000.7mb 49f 53f
3:24 17 22 mph 1000.6mb 49f 54f
3:18 17 20 mph 1000.5mb 49f 54f
3:12 16 22 mph 1000.4mb 49f 55f
3:06 17 20 mph 1000.3mb 49f 54f
3:00 18 23 mph 1000.2mb 49f 54f
2:54 21 23 mph 1000.2mb 49f 54f
2:48 20 22 mph 1000.1mb 49f 54f
2:42 17 21 mph 1000mb 49f 54f
2:36 18 22 mph 999.9mb 49f 54f
2:30 16 21 mph 999.8mb 49f 54f
2:24 17 22 mph 999.8mb 49f 55f
2:18 20 23 mph 999.7mb 49f 55f
2:12 14 22 mph 999.7mb 49f 55f
2:06 18 22 mph 999.7mb 49f 56f
2:00 17 23 mph 999.6mb 49f 56f
1:54 18 23 mph 999.6mb 49f 55f
1:48 18 24 mph 999.6mb 49f 56f
12:54 23 25 mph 999.2mb 49f 55f
12:48 24 30 mph 999.2mb 49f 55f
12:30 22 29 mph 999.2mb 49f 55f
12:24 21 25 mph 999.3mb 49f 55f
12:18 22 26 mph 999.3mb 49f 55f
12:12 17 21 mph 999.4mb 49f 55f
12:06 17 22 mph 999.5mb 49f 55f
12:00 15 23 mph 999.5mb 49f 55f
11:54 20 23 mph 999.4mb 49f 55f
11:48 17 21 mph 999.6mb 49f 54f
11:42 21 24 mph 999.6mb 49f 54f
11:36 20 24 mph 999.6mb 49f 55f
11:30 21 24 mph 999.6mb 49f 55f
11:24 22 25 mph 999.5mb 49f 55f
11:18 18 23 mph 999.6mb 49f 55f
11:12 18 26 mph 999.7mb 49f 55f
11:06 23 26 mph 999.7mb 49f 55f
11:00 18 23 mph 999.8mb 49f 54f
10:54 24 30 mph 999.7mb 49f 54f
10:48 15 20 mph 999.8mb 49f 54f
10:42 14 18 mph 999.8mb 49f 54f
10:36 21 26 mph 999.7mb 49f 54f
10:30 17 24 mph 999.8mb 49f 54f
10:24 25 29 mph 999.8mb 49f 54f
10:18 21 25 mph 999.9mb 49f 54f
10:12 20 24 mph 999.9mb 49f 54f
10:06 20 28 mph 999.8mb 49f 54f
10:00 20 26 mph 999.7mb 49f 54f
9:54 17 23 mph 999.6mb 49f 54f
9:48 15 23 mph 999.5mb 49f 53f
9:42 15 22 mph 999.4mb 49f 53f
9:36 16 21 mph 999.4mb 49f 53f
9:30 16 18 mph 999.2mb 49f 52f
9:24 18 23 mph 999.2mb 49f 52f
9:18 18 25 mph 999.1mb 49f 52f
9:12 22 24 mph 999mb 49f 52f
9:06 22 24 mph 998.9mb 49f 52f
9:00 22 26 mph 998.7mb 49f 52f
8:54 15 17 mph 998.7mb 49f 52f
8:48 16 17 mph 998.7mb 49f 52f
8:42 11 14 mph 998.6mb 49f 52f
8:36 11 14 mph 998.4mb 49f 51f
8:30 11 14 mph 998.1mb 49f 51f
8:24 10 13 mph 997.9mb 48f 51f
8:18 7 8 mph 997.8mb 48f 51f
8:12 6
mph
997.6mb 48f 51f
8:06 6 8 mph 997.6mb 48f 51f
8:00 8 10 mph 997.6mb 48f 51f
7:54 8 10 mph 997.6mb 48f 51f
7:48 9 10 mph 997.4mb 48f 51f
7:42 8 10 mph 997mb 48f 51f
7:36 9 13 mph 997mb 49f 51f
7:30 13 20 mph 997.1mb 49f 51f
7:24 17 20 mph 997.3mb 49f 52f
7:18 16 18 mph 997.4mb 49f 52f
7:12 18 22 mph 997.4mb 49f 53f
7:06 16 18 mph 997.5mb 49f 53f
7:00 16 20 mph 997.5mb 49f 53f
6:54 14 20 mph 997.2mb 48f 54f
6:48 17 22 mph 997.5mb 48f 54f
6:42 21 25 mph 996.9mb 48f 56f
6:36 17 22 mph 997.5mb 48f 56f
6:30 21 26 mph 997.4mb 48f 57f
6:24 28 39 mph 996.8mb 48f 58f
6:18 18 25 mph 996.6mb 48f 60f
6:12 18 23 mph 996.4mb 48f 60f
6:06 14 20 mph 996mb 48f 60f
6:00 15 20 mph 996.3mb 48f 59f
5:54 15 20 mph 996.3mb 48f 59f
5:48 16 18 mph 996.1mb 48f 59f
5:42 15 18 mph 996mb 48f 59f
5:36 16 21 mph 996mb 48f 59f
5:30 15 18 mph 995.8mb 48f 59f
5:24 14 17 mph 995.9mb 48f 58f
5:18 16 20 mph 995.9mb 48f 58f
5:12 17 22 mph 996mb 48f 58f
5:06 18 24 mph 995.9mb 48f 58f
5:00 20 28 mph 995.8mb 48f 58f
4:54 18 24 mph 996.1mb 48f 57f
4:48 17 22 mph 996.1mb 48f 56f
4:42 15 17 mph 996.2mb 48f 54f
4:36 14 15 mph 996.3mb 48f 52f
4:30 13 14 mph 996.5mb 48f 51f
4:24 10 11 mph 996.3mb 48f 51f
4:18 9 11 mph 996.4mb 48f 50f
4:12 8 9 mph 995.8mb 48f 51f
4:06 5 6 mph 996.1mb 48f 51f
4:00 3
mph
996.8mb 48f 51f
3:54 2 3 mph 997mb 48f 50f
3:48 2 3 mph 997.2mb 48f 50f
3:42 3 5 mph 997.2mb 48f 50f
3:36 5 6 mph 997.3mb 48f 50f
3:30 1 2 mph 997.4mb 48f 50f
3:24 1 6 mph 997.4mb 48f 50f
3:18 6 7 mph 997.4mb 48f 50f
3:12 6 7 mph 997.6mb 48f 50f
3:06 7 8 mph 997.8mb 49f 50f
3:00 8 9 mph 997.9mb 49f 50f
2:54 8 10 mph 998.1mb 49f 50f
2:48 9 11 mph 998.3mb 49f 50f
2:42 10 11 mph 998.4mb 49f 50f
2:36 10 13 mph 998.8mb 49f 49f
2:30 11 14 mph 999.1mb 49f 49f
2:24 13 14 mph 999.3mb 49f 49f
2:18 11 14 mph 999.7mb 49f 49f
2:12 11 14 mph 1000.3mb 49f 49f
2:06 13 14 mph 1000.4mb 49f 49f
2:00 11 13 mph 1000.9mb 49f 49f
1:54 13
mph
1001mb 49f 49f
1:48 10 13 mph 1001.3mb 49f 49f
1:42 9 16 mph 1001.6mb 49f 49f
1:36 13 15 mph 1001.7mb 49f 49f
1:30 6 16 mph 1001.8mb 49f 49f
1:24 17 21 mph 1001.5mb 49f 49f
1:18 13 14 mph 1001.8mb 49f 49f
1:12 11 15 mph 1002.2mb 49f 49f
1:06 11 16 mph 1002.4mb 49f 49f
1:00 8 11 mph 1002.6mb 49f 49f
12:54 9 11 mph 1002.8mb 49f 49f
12:48 9 13 mph 1003mb 49f -
12:42 10 13 mph 1003.3mb 49f -
12:36 11 14 mph 1003.3mb 49f -
12:30 13 16 mph 1003.5mb 49f 48f
12:24 8 10 mph 1003.9mb 49f 48f
12:18 7 10 mph 1004.2mb 49f 48f
12:12 7 9 mph 1004.2mb 49f 48f
12:06 8 10 mph 1004.2mb 48f 48f
12:00 10 13 mph 1004.5mb 48f 48f
mié 11/30 11:54 10 13 mph 1004.8mb 48f 48f
11:48 9 11 mph 1005.2mb 48f 48f
11:42 10 11 mph 1005.3mb 48f 48f
11:36 8 10 mph 1005.6mb 48f 48f
11:30 10 15 mph 1005.9mb 48f 48f
11:24 10 13 mph 1006mb 48f 48f
11:18 11 14 mph 1006.2mb 48f 48f
11:12 10 14 mph 1006.8mb 48f 48f
11:06 13 15 mph 1006.8mb 48f 48f
11:00 11 14 mph 1006.9mb 48f 48f
10:54 10 14 mph 1007.2mb 48f 48f
10:48 11 13 mph 1007.3mb 48f 48f
10:42 11 16 mph 1007.5mb 48f 47f
10:36 10 14 mph 1007.6mb 48f 47f